createdAt,value
2022-11-05T00:01:16.428Z,99981.77
2022-11-05T00:06:41.714Z,99975.31
2022-11-05T00:12:07.327Z,99973.11
2022-11-05T00:17:14.896Z,99972.00
2022-11-05T00:22:40.301Z,99968.87
2022-11-05T00:27:52.700Z,99967.03
2022-11-05T00:33:04.900Z,99966.81
2022-11-05T00:38:13.008Z,99967.17
2022-11-05T00:43:53.255Z,99977.73
2022-11-05T00:49:18.630Z,99975.74
2022-11-05T00:54:26.241Z,99974.02
2022-11-05T00:59:33.959Z,99978.78
2022-11-05T01:04:41.548Z,99973.18
2022-11-05T01:09:49.160Z,99974.91
2022-11-05T01:14:56.813Z,99975.80
2022-11-05T01:20:04.643Z,99974.73
2022-11-05T01:25:12.965Z,99976.69
2022-11-05T01:30:21.315Z,99970.39
2022-11-05T01:35:29.073Z,99969.22
2022-11-05T01:40:36.862Z,99972.61
2022-11-05T01:45:45.343Z,99967.95
2022-11-05T01:50:58.869Z,99976.79
2022-11-05T01:56:10.877Z,99987.10
2022-11-05T02:01:19.894Z,99991.58
2022-11-05T02:06:30.239Z,99995.14
2022-11-05T02:11:38.103Z,99989.85
2022-11-05T02:16:52.141Z,99991.30
2022-11-05T02:22:39.324Z,99989.48
2022-11-05T02:28:14.142Z,99992.04
2022-11-05T02:33:32.213Z,99994.55
2022-11-05T02:38:47.307Z,99994.40
2022-11-05T02:44:14.026Z,99998.69
2022-11-05T02:49:32.032Z,99995.46
2022-11-05T02:54:44.303Z,99992.25
2022-11-05T03:00:00.939Z,99993.05
2022-11-05T03:05:09.265Z,99991.92
2022-11-05T03:10:34.704Z,99988.27
2022-11-05T03:15:54.649Z,99983.34
2022-11-05T03:21:07.212Z,99984.31
2022-11-05T03:26:20.361Z,99990.54
2022-11-05T03:31:30.303Z,99994.31
2022-11-05T03:36:42.521Z,100002.50
2022-11-05T03:41:53.317Z,100008.72
2022-11-05T03:47:05.583Z,100011.38
2022-11-05T03:52:16.694Z,100017.86
2022-11-05T03:57:30.299Z,100017.20
2022-11-05T04:02:38.458Z,100021.83
2022-11-05T04:08:07.668Z,100029.67
2022-11-05T04:13:28.150Z,100044.08
2022-11-05T04:18:36.624Z,100060.80
2022-11-05T04:24:01.868Z,100077.54
2022-11-05T04:29:27.752Z,100087.48
2022-11-05T04:34:35.469Z,100098.33
2022-11-05T04:39:43.142Z,100097.98
2022-11-05T04:44:50.828Z,100098.55
2022-11-05T04:49:58.550Z,100097.85
2022-11-05T04:55:08.035Z,100094.72
2022-11-05T05:00:16.807Z,100099.77
2022-11-05T05:05:24.419Z,100105.96
2022-11-05T05:10:32.151Z,100113.52
2022-11-05T05:15:40.214Z,100119.48
2022-11-05T05:21:04.158Z,100125.20
2022-11-05T05:26:11.783Z,100126.19
2022-11-05T05:31:19.453Z,100129.73
2022-11-05T05:36:25.906Z,100141.75
2022-11-05T05:41:33.873Z,100153.40
2022-11-05T05:46:39.965Z,100160.39
2022-11-05T05:51:49.530Z,100176.84
2022-11-05T05:56:58.278Z,100174.65
2022-11-05T06:02:06.244Z,100176.29
2022-11-05T06:07:12.512Z,100178.35
2022-11-05T06:12:20.221Z,100185.08
2022-11-05T06:17:28.250Z,100192.35
2022-11-05T06:22:34.482Z,100197.41
2022-11-05T06:27:42.280Z,100203.02
2022-11-05T06:32:50.377Z,100208.91
2022-11-05T06:38:01.814Z,100214.75
2022-11-05T06:43:09.729Z,100223.96
2022-11-05T06:48:18.208Z,100243.44
2022-11-05T06:53:26.005Z,100264.37
2022-11-05T06:58:33.822Z,100285.85
2022-11-05T07:03:42.015Z,100296.09
2022-11-05T07:08:50.481Z,100295.73
2022-11-05T07:13:58.558Z,100302.96
2022-11-05T07:19:06.283Z,100308.48
2022-11-05T07:24:15.469Z,100312.23
2022-11-05T07:29:23.198Z,100332.50
2022-11-05T07:34:30.840Z,100349.27
2022-11-05T07:39:38.528Z,100346.30
2022-11-05T07:44:46.234Z,100360.36
2022-11-05T07:49:53.868Z,100374.41
2022-11-05T07:55:01.690Z,100374.79
2022-11-05T08:00:12.713Z,100395.21
2022-11-05T08:05:20.514Z,100412.09
2022-11-05T08:10:28.604Z,100420.45
2022-11-05T08:15:37.329Z,100418.92
2022-11-05T08:20:46.976Z,100406.44
2022-11-05T08:25:55.534Z,100393.02
2022-11-05T08:31:03.295Z,100400.02
2022-11-05T08:36:11.290Z,100410.85
2022-11-05T08:41:19.047Z,100422.48
2022-11-05T08:46:26.830Z,100426.30
2022-11-05T08:51:34.608Z,100441.27
2022-11-05T08:56:42.324Z,100453.00
2022-11-05T09:01:50.985Z,100465.10
2022-11-05T09:06:58.804Z,100460.71
2022-11-05T09:12:13.122Z,100471.02
2022-11-05T09:17:22.936Z,100470.65
2022-11-05T09:22:31.013Z,100489.00
2022-11-05T09:27:38.715Z,100505.83
2022-11-05T09:32:46.406Z,100509.18
2022-11-05T09:37:59.742Z,100512.75
2022-11-05T09:43:16.724Z,100511.36
2022-11-05T09:48:29.390Z,100514.30
2022-11-05T09:53:41.530Z,100520.16
2022-11-05T09:58:53.141Z,100535.21
2022-11-05T10:04:06.621Z,100549.22
2022-11-05T10:09:21.559Z,100549.29
2022-11-05T10:14:34.675Z,100558.06
2022-11-05T10:19:51.036Z,100566.92
2022-11-05T10:24:59.293Z,100582.30
2022-11-05T10:30:08.477Z,100591.05
2022-11-05T10:35:22.789Z,100599.87
2022-11-05T10:40:44.420Z,100612.99
2022-11-05T10:45:59.428Z,100624.66
2022-11-05T10:51:09.601Z,100635.30
2022-11-05T10:56:34.350Z,100644.26
2022-11-05T11:01:42.204Z,100649.39
2022-11-05T11:06:51.282Z,100653.86
2022-11-05T11:12:15.035Z,100659.61
2022-11-05T11:17:35.263Z,100662.09
2022-11-05T11:23:03.815Z,100674.81
2022-11-05T11:28:20.561Z,100685.19
2022-11-05T11:33:30.431Z,100692.36
2022-11-05T11:38:39.719Z,100693.52
2022-11-05T11:43:48.388Z,100693.11
2022-11-05T11:48:56.397Z,100697.42
2022-11-05T11:54:05.803Z,100699.27
2022-11-05T11:59:40.864Z,100697.89
2022-11-05T12:05:18.916Z,100690.11
2022-11-05T12:10:42.814Z,100688.65
2022-11-05T12:15:53.921Z,100694.58
2022-11-05T12:21:09.522Z,100691.17
2022-11-05T12:26:28.023Z,100703.88
2022-11-05T12:31:44.439Z,100712.31
2022-11-05T12:37:24.462Z,100719.85
2022-11-05T12:42:46.615Z,100719.14
2022-11-05T12:48:10.586Z,100719.02
2022-11-05T12:53:45.899Z,100720.73
2022-11-05T12:59:01.549Z,100728.40
2022-11-05T13:04:15.906Z,100731.09
2022-11-05T13:09:29.691Z,100736.23
2022-11-05T13:14:41.738Z,100742.34
2022-11-05T13:19:55.252Z,100751.76
2022-11-05T13:25:07.210Z,100754.80
2022-11-05T13:30:20.805Z,100756.45
2022-11-05T13:35:32.975Z,100767.40
2022-11-05T13:40:53.309Z,100773.85
2022-11-05T13:46:38.662Z,100779.42
2022-11-05T13:51:55.941Z,100785.22
2022-11-05T13:57:24.145Z,100790.49
2022-11-05T14:02:37.430Z,100790.71
2022-11-05T14:07:49.669Z,100795.79
2022-11-05T14:13:00.643Z,100794.45
2022-11-05T14:18:31.826Z,100799.69
2022-11-05T14:23:50.801Z,100802.23
2022-11-05T14:29:39.625Z,100798.92
2022-11-05T14:34:54.780Z,100812.84
2022-11-05T14:40:30.657Z,100825.12
2022-11-05T14:45:41.471Z,100830.58
2022-11-05T14:50:50.094Z,100834.95
2022-11-05T14:56:03.382Z,100838.11
2022-11-05T15:01:31.768Z,100840.67
2022-11-05T15:06:38.324Z,100847.40
2022-11-05T15:11:53.553Z,100857.23
2022-11-05T15:17:05.533Z,100862.73
2022-11-05T15:22:26.841Z,100869.52
2022-11-05T15:27:51.063Z,100872.46
2022-11-05T15:33:11.294Z,100886.92
2022-11-05T15:38:30.621Z,100898.41
2022-11-05T15:43:47.692Z,100905.48
2022-11-05T15:48:58.681Z,100909.91
2022-11-05T15:54:29.283Z,100913.66
2022-11-05T15:59:35.329Z,100917.20
2022-11-05T16:04:47.225Z,100923.59
2022-11-05T16:09:58.544Z,100929.79
2022-11-05T16:15:21.644Z,100932.32
2022-11-05T16:20:35.639Z,100936.29
2022-11-05T16:25:44.371Z,100943.13
2022-11-05T16:31:01.204Z,100953.21
2022-11-05T16:36:10.952Z,100960.60
2022-11-05T16:41:21.383Z,100965.05
2022-11-05T16:46:31.314Z,100972.73
2022-11-05T16:51:39.187Z,100982.98
2022-11-05T16:56:47.717Z,100994.16
2022-11-05T17:01:56.076Z,100996.95
2022-11-05T17:07:04.053Z,100995.43
2022-11-05T17:12:12.058Z,100997.15
2022-11-05T17:17:19.670Z,101002.73
2022-11-05T17:22:27.349Z,101006.60
2022-11-05T17:27:34.969Z,101013.01
2022-11-05T17:32:42.717Z,101017.77
2022-11-05T17:37:50.445Z,101024.29
2022-11-05T17:42:58.154Z,101027.38
2022-11-05T17:48:06.202Z,101033.98
2022-11-05T17:53:12.837Z,101039.11
2022-11-05T17:58:21.102Z,101052.09
2022-11-05T18:03:27.373Z,101055.23
2022-11-05T18:08:35.754Z,101059.63
2022-11-05T18:13:43.461Z,101074.98
2022-11-05T18:19:03.996Z,101083.41
2022-11-05T18:24:16.088Z,101090.00
2022-11-05T18:29:26.938Z,101088.44
2022-11-05T18:34:34.730Z,101093.46
2022-11-05T18:39:41.151Z,101103.17
2022-11-05T18:44:49.604Z,101105.63
2022-11-05T18:49:57.452Z,101107.35
2022-11-05T18:55:05.659Z,101110.67
2022-11-05T19:00:15.539Z,101114.90
2022-11-05T19:05:28.963Z,101115.70
2022-11-05T19:10:42.224Z,101114.15
2022-11-05T19:15:49.973Z,101114.02
2022-11-05T19:20:57.845Z,101122.58
2022-11-05T19:26:08.883Z,101123.55
2022-11-05T19:31:19.835Z,101121.69
2022-11-05T19:36:27.763Z,101128.14
2022-11-05T19:41:34.759Z,101134.80
2022-11-05T19:46:44.131Z,101143.02
2022-11-05T19:51:52.196Z,101145.15
2022-11-05T19:57:00.056Z,101149.52
2022-11-05T20:02:13.366Z,101150.63
2022-11-05T20:07:23.910Z,101153.85
2022-11-05T20:12:32.068Z,101157.60
2022-11-05T20:17:45.062Z,101161.83
2022-11-05T20:22:57.735Z,101161.77
2022-11-05T20:28:05.882Z,101165.89
2022-11-05T20:33:14.253Z,101180.73
2022-11-05T20:38:22.101Z,101184.34
2022-11-05T20:43:31.391Z,101184.23
2022-11-05T20:48:39.518Z,101186.75
2022-11-05T20:53:46.359Z,101188.42
2022-11-05T20:58:55.668Z,101188.83
2022-11-05T21:04:04.390Z,101191.99
2022-11-05T21:09:12.278Z,101199.16
2022-11-05T21:14:18.564Z,101198.52
2022-11-05T21:19:26.500Z,101200.63
2022-11-05T21:24:35.014Z,101205.48
2022-11-05T21:29:44.070Z,101206.95
2022-11-05T21:34:54.150Z,101211.48
2022-11-05T21:40:02.028Z,101212.58
2022-11-05T21:45:09.163Z,101213.53
2022-11-05T21:50:21.655Z,101214.77
2022-11-05T21:55:47.217Z,101219.13
2022-11-05T22:00:54.988Z,101219.80
2022-11-05T22:06:03.028Z,101221.73
2022-11-05T22:11:09.189Z,101225.87
2022-11-05T22:16:17.122Z,101229.92
2022-11-05T22:21:25.331Z,101232.63
2022-11-05T22:26:33.247Z,101235.98
2022-11-05T22:31:41.462Z,101238.92
2022-11-05T22:36:49.327Z,101237.14
2022-11-05T22:42:00.440Z,101240.91
2022-11-05T22:47:10.850Z,101240.84
2022-11-05T22:52:18.509Z,101242.88
2022-11-05T22:57:28.916Z,101246.46
2022-11-05T23:02:40.614Z,101245.55
2022-11-05T23:08:05.936Z,101240.88
2022-11-05T23:13:13.709Z,101241.73
2022-11-05T23:18:37.895Z,101247.34
2022-11-05T23:24:14.957Z,101247.62
2022-11-05T23:29:24.521Z,101249.69
2022-11-05T23:34:32.406Z,101250.11
2022-11-05T23:39:42.645Z,101248.31
2022-11-05T23:45:14.065Z,101247.55
2022-11-05T23:50:22.216Z,101248.33
2022-11-05T23:55:31.097Z,101246.86
